KLNN/LNN METAR and TAF weather

Enter ICAO airport designator
Station Type Date Time Source
KLNN METAR 2019/04/24 21:55 UTC NOAA

KLNN 242155Z AUTO 00000KT 10SM CLR 11/M01 A2996 RMK AO1 T01101015


Station Type Date Time Source
KLNN Decoded METAR 2019/04/24 21:55 UTC NOAA

Willoughby, OH, United States (KLNN) 41-41N 081-23W
Apr 24, 2019 - 05:55 PM EDT / 2019.04.24 2155 UTC
Wind: Calm:0
Visibility: 10 mile(s):0
Sky conditions: clear
Temperature: 51.8 F (11.0 C)
Dew Point: 29.3 F (-1.5 C)
Relative Humidity: 41%
Pressure (altimeter): 29.96 in. Hg (1014 hPa)
ob: KLNN 242155Z AUTO 00000KT 10SM CLR 11/M01 A2996 RMK AO1 T01101015
cycle: 22

Station Type Date Time Source
KLNN TAF UTC NOAA

Error!

Example: see airport list